Time;durP1;ratioP1;P1;durP2;ratioP2;P2;SDS_P1;SDS_P2;PMS_P1;PMS_P2;Temp;Humidity;BMP_temperature;BMP_pressure;BME280_temperature;BME280_humidity;BME280_pressure;Samples;Min_cycle;Max_cycle;Signal;HPM_P1;HPM_P2
2023/08/26 00:00:23;;;;;;;33.88;22.58;;;19.50;73.80;;;;;;5036302;28;20389;-72
2023/08/26 00:02:48;;;;;;;38.27;23.00;;;19.50;71.60;;;;;;5053836;28;20431;-72
2023/08/26 00:05:14;;;;;;;37.00;22.20;;;19.40;72.20;;;;;;5054381;28;20796;-73
2023/08/26 00:07:39;;;;;;;33.83;21.88;;;19.40;70.70;;;;;;5054102;28;20405;-73
2023/08/26 00:10:05;;;;;;;34.53;21.43;;;19.40;70.00;;;;;;5053857;28;20393;-71
2023/08/26 00:12:31;;;;;;;33.95;20.67;;;19.30;71.10;;;;;;5053682;28;20386;-72
2023/08/26 00:14:57;;;;;;;32.17;18.77;;;19.30;70.60;;;;;;5036175;28;20882;-72
2023/08/26 00:17:22;;;;;;;29.75;18.63;;;19.30;69.50;;;;;;5053879;28;20377;-71
2023/08/26 00:19:50;;;;;;;32.93;18.47;;;19.30;67.60;;;;;;5053865;28;20378;-71
2023/08/26 00:22:16;;;;;;;27.77;18.03;;;19.40;65.30;;;;;;5053684;28;20380;-70
2023/08/26 00:24:42;;;;;;;30.85;18.52;;;19.40;66.40;;;;;;5036428;28;20471;-72
2023/08/26 00:27:08;;;;;;;29.95;19.00;;;19.30;68.50;;;;;;5053954;28;20412;-72
2023/08/26 00:29:33;;;;;;;28.10;18.00;;;19.30;68.40;;;;;;5053753;28;20402;-71
2023/08/26 00:31:59;;;;;;;27.00;17.70;;;19.40;67.70;;;;;;5053535;28;20389;-72
2023/08/26 00:34:25;;;;;;;27.88;17.67;;;19.40;63.80;;;;;;5054033;28;20378;-73
2023/08/26 00:36:51;;;;;;;26.67;18.17;;;19.40;64.20;;;;;;5053955;28;20505;-72
2023/08/26 00:39:16;;;;;;;29.98;18.08;;;19.30;66.70;;;;;;5053617;28;20411;-72
2023/08/26 00:41:42;;;;;;;28.37;18.53;;;19.30;68.10;;;;;;5053282;28;20390;-71
2023/08/26 00:44:07;;;;;;;26.48;17.50;;;19.20;68.50;;;;;;5053512;28;20869;-73
2023/08/26 00:46:34;;;;;;;26.50;18.60;;;19.20;68.40;;;;;;5035707;28;20389;-72
2023/08/26 00:49:00;;;;;;;26.70;17.15;;;19.20;67.10;;;;;;5053277;28;20455;-73
2023/08/26 00:51:26;;;;;;;24.55;17.08;;;19.20;65.80;;;;;;5053277;28;20409;-72
2023/08/26 00:53:53;;;;;;;31.35;18.08;;;19.10;65.30;;;;;;5035812;28;20393;-72
2023/08/26 00:56:20;;;;;;;28.10;18.45;;;19.10;65.80;;;;;;5053567;28;20389;-72
2023/08/26 00:58:46;;;;;;;24.63;17.85;;;19.00;68.40;;;;;;5053548;28;20387;-73
2023/08/26 01:01:11;;;;;;;26.57;17.93;;;19.10;67.70;;;;;;5053441;28;20897;-72
2023/08/26 01:03:38;;;;;;;24.10;16.30;;;19.00;69.00;;;;;;5053464;28;20854;-72
2023/08/26 01:06:03;;;;;;;26.73;18.02;;;19.00;68.90;;;;;;5052260;28;20413;-71
2023/08/26 01:08:29;;;;;;;23.00;15.60;;;18.80;70.30;;;;;;5038363;28;20416;-73
2023/08/26 01:11:13;;;;;;;26.10;17.10;;;19.00;68.10;;;;;;5079141;22;20423;-74
2023/08/26 01:14:10;;;;;;;23.87;16.93;;;19.10;65.00;;;;;;5073891;28;20378;-75
2023/08/26 01:16:38;;;;;;;25.55;16.92;;;19.00;65.00;;;;;;5068216;28;20383;-74
2023/08/26 01:19:08;;;;;;;30.00;17.45;;;19.00;67.00;;;;;;5073661;28;20462;-75
2023/08/26 01:21:39;;;;;;;24.92;16.23;;;18.90;66.90;;;;;;5064218;28;20392;-76
2023/08/26 01:24:05;;;;;;;27.42;17.67;;;18.80;67.70;;;;;;5047640;28;20415;-76
2023/08/26 01:26:31;;;;;;;25.48;17.10;;;19.00;68.10;;;;;;5055188;28;20393;-75
2023/08/26 01:28:57;;;;;;;28.02;17.20;;;19.00;65.50;;;;;;5066330;28;20814;-74
2023/08/26 01:31:25;;;;;;;24.60;15.43;;;18.90;61.30;;;;;;5058903;28;20472;-75
2023/08/26 01:34:10;;;;;;;22.75;15.02;;;18.80;58.00;;;;;;5051477;28;20420;-75
2023/08/26 01:36:42;;;;;;;24.95;14.48;;;18.70;57.70;;;;;;5052515;28;20862;-74
2023/08/26 01:39:12;;;;;;;21.23;13.57;;;18.50;56.80;;;;;;5052698;28;20462;-75
2023/08/26 01:41:42;;;;;;;21.63;13.27;;;18.40;56.60;;;;;;5052417;28;20447;-74
2023/08/26 01:44:09;;;;;;;23.05;13.65;;;18.20;56.70;;;;;;5052718;28;20387;-74
2023/08/26 01:46:38;;;;;;;21.23;12.35;;;18.10;57.40;;;;;;5052300;28;20385;-75
2023/08/26 01:49:04;;;;;;;24.13;12.60;;;18.00;58.90;;;;;;5052129;28;20401;-75
2023/08/26 01:51:31;;;;;;;19.08;12.70;;;17.80;61.30;;;;;;5052063;28;20388;-74
2023/08/26 01:53:56;;;;;;;17.80;12.93;;;17.70;61.30;;;;;;5052105;28;20429;-74
2023/08/26 01:56:22;;;;;;;25.67;12.93;;;17.60;61.40;;;;;;5052017;28;20771;-75
2023/08/26 01:58:47;;;;;;;19.95;11.38;;;17.50;62.10;;;;;;5051882;28;20382;-75
2023/08/26 02:01:13;;;;;;;23.20;11.93;;;17.40;60.10;;;;;;5051524;28;20396;-74
2023/08/26 02:03:39;;;;;;;17.80;10.10;;;17.30;61.40;;;;;;5051209;28;20401;-74
2023/08/26 02:06:04;;;;;;;14.70;9.50;;;17.10;60.40;;;;;;5051562;28;20385;-75
2023/08/26 02:08:30;;;;;;;15.60;7.05;;;17.00;57.30;;;;;;5051531;28;20411;-75
2023/08/26 02:10:56;;;;;;;13.90;6.60;;;16.90;54.80;;;;;;5050995;28;20393;-74
2023/08/26 02:13:22;;;;;;;11.38;5.15;;;16.90;53.20;;;;;;5051664;28;20397;-74
2023/08/26 02:15:48;;;;;;;11.53;4.50;;;16.70;51.00;;;;;;5051503;28;20409;-75
2023/08/26 02:18:14;;;;;;;6.10;3.60;;;16.70;47.80;;;;;;5051418;28;20435;-73
2023/08/26 02:20:43;;;;;;;9.77;3.33;;;16.60;47.70;;;;;;5051450;28;20388;-73
2023/08/26 02:23:10;;;;;;;11.93;3.05;;;16.50;46.50;;;;;;5051300;28;20397;-74
2023/08/26 02:25:41;;;;;;;8.10;2.80;;;16.50;47.00;;;;;;5050761;28;21306;-74
2023/08/26 02:28:07;;;;;;;7.40;3.20;;;16.30;47.20;;;;;;5051331;28;20409;-74
2023/08/26 02:30:33;;;;;;;7.63;3.30;;;16.30;47.00;;;;;;5051237;28;20731;-75
2023/08/26 02:32:59;;;;;;;7.20;2.90;;;16.30;48.20;;;;;;5050908;28;20814;-74
2023/08/26 02:35:25;;;;;;;8.30;3.10;;;16.20;48.60;;;;;;5051415;28;20424;-75
2023/08/26 02:37:50;;;;;;;5.40;3.10;;;16.10;49.60;;;;;;5051170;28;20466;-74
2023/08/26 02:40:16;;;;;;;10.43;3.55;;;16.00;50.70;;;;;;5051333;28;20884;-73
2023/08/26 02:42:41;;;;;;;9.90;3.80;;;16.00;51.70;;;;;;5051087;28;20440;-74
2023/08/26 02:45:07;;;;;;;12.83;4.10;;;16.00;52.10;;;;;;5051675;28;20405;-74
2023/08/26 02:47:32;;;;;;;8.32;3.85;;;15.90;53.40;;;;;;5054978;28;20413;-73
2023/08/26 02:49:58;;;;;;;10.15;4.35;;;15.90;54.50;;;;;;5054432;28;20412;-74
2023/08/26 02:52:24;;;;;;;7.07;3.80;;;15.90;55.20;;;;;;5052258;28;20430;-74
2023/08/26 02:54:49;;;;;;;17.90;4.80;;;15.80;56.30;;;;;;5052001;28;20401;-74
2023/08/26 02:57:16;;;;;;;12.30;4.00;;;15.80;55.70;;;;;;5050934;28;20519;-74
2023/08/26 02:59:42;;;;;;;6.60;3.87;;;15.80;55.50;;;;;;5049729;28;20419;-74
2023/08/26 03:02:08;;;;;;;9.70;4.17;;;15.70;55.80;;;;;;5050761;28;20741;-74
2023/08/26 03:04:34;;;;;;;5.30;3.60;;;15.60;56.70;;;;;;5050918;28;20463;-74
2023/08/26 03:07:00;;;;;;;13.60;4.13;;;15.60;56.50;;;;;;5050556;28;20374;-75
2023/08/26 03:09:27;;;;;;;12.00;4.20;;;15.50;56.90;;;;;;5050341;28;20401;-74
2023/08/26 03:11:54;;;;;;;8.45;3.80;;;15.60;55.40;;;;;;5049181;28;20397;-73
2023/08/26 03:14:19;;;;;;;12.18;4.45;;;15.60;55.40;;;;;;5050083;28;20481;-74
2023/08/26 03:16:45;;;;;;;10.82;4.10;;;15.60;55.80;;;;;;5050277;28;20456;-74
2023/08/26 03:19:10;;;;;;;9.73;4.60;;;15.50;56.90;;;;;;5050585;28;20443;-74
2023/08/26 03:21:36;;;;;;;12.77;4.80;;;15.40;58.50;;;;;;5050467;28;20401;-74
2023/08/26 03:24:01;;;;;;;7.93;4.25;;;15.30;58.70;;;;;;5050470;28;20476;-74
2023/08/26 03:26:27;;;;;;;7.90;4.13;;;15.30;58.40;;;;;;5050407;28;20464;-74
2023/08/26 03:28:52;;;;;;;9.73;4.23;;;15.30;57.90;;;;;;5050647;28;20393;-74
2023/08/26 03:31:18;;;;;;;11.80;4.10;;;15.30;57.30;;;;;;5050343;28;20575;-75
2023/08/26 03:33:43;;;;;;;10.55;4.00;;;15.30;57.90;;;;;;5050540;28;20377;-74
2023/08/26 03:36:09;;;;;;;7.27;3.50;;;15.20;58.20;;;;;;5050454;28;20386;-74
2023/08/26 03:38:35;;;;;;;4.50;3.20;;;15.20;59.10;;;;;;5049423;28;20876;-74
2023/08/26 03:41:07;;;;;;;7.60;3.37;;;15.20;58.80;;;;;;5050375;28;20385;-74
2023/08/26 03:43:33;;;;;;;8.05;3.80;;;15.10;59.20;;;;;;5050326;28;20404;-74
2023/08/26 03:45:59;;;;;;;8.70;3.53;;;15.20;58.20;;;;;;5050582;28;20381;-75
2023/08/26 03:48:25;;;;;;;9.52;3.75;;;15.20;58.40;;;;;;5050433;28;20454;-75
2023/08/26 03:50:52;;;;;;;8.52;3.78;;;15.10;58.50;;;;;;5050512;28;20389;-74
2023/08/26 03:53:18;;;;;;;7.65;3.65;;;15.00;58.80;;;;;;5050470;28;20392;-74
2023/08/26 03:55:44;;;;;;;13.63;3.80;;;15.00;59.40;;;;;;5050372;28;20847;-74
2023/08/26 03:58:10;;;;;;;13.93;4.10;;;15.00;59.80;;;;;;5050194;28;20467;-74
2023/08/26 04:00:37;;;;;;;6.40;3.97;;;15.00;58.80;;;;;;5050172;28;20523;-74
2023/08/26 04:03:02;;;;;;;12.23;3.95;;;14.90;59.70;;;;;;5049977;28;20754;-74
2023/08/26 04:05:28;;;;;;;11.98;4.03;;;14.90;60.30;;;;;;5050192;28;20389;-74
2023/08/26 04:07:53;;;;;;;10.77;3.77;;;14.90;59.20;;;;;;5050196;28;20401;-74
2023/08/26 04:10:19;;;;;;;9.63;4.60;;;14.90;59.50;;;;;;5050155;28;20408;-75
2023/08/26 04:12:44;;;;;;;11.38;4.15;;;14.90;60.20;;;;;;5049982;28;20729;-74
2023/08/26 04:15:10;;;;;;;11.50;4.37;;;14.90;59.80;;;;;;5050127;28;20783;-74
2023/08/26 04:17:35;;;;;;;9.83;4.17;;;14.90;58.20;;;;;;5049962;28;20871;-74
2023/08/26 04:20:01;;;;;;;11.50;3.80;;;14.90;58.40;;;;;;5049993;28;20789;-75
2023/08/26 04:22:28;;;;;;;10.15;4.30;;;14.90;57.90;;;;;;5050634;28;20487;-72
2023/08/26 04:24:53;;;;;;;8.57;3.60;;;14.90;58.10;;;;;;5049902;28;20387;-73
2023/08/26 04:27:19;;;;;;;11.83;4.33;;;14.90;58.20;;;;;;5052343;28;20869;-72
2023/08/26 04:29:44;;;;;;;7.80;3.40;;;14.90;57.30;;;;;;5053522;28;20429;-74
2023/08/26 04:32:10;;;;;;;11.48;3.67;;;14.80;57.40;;;;;;5053351;28;20818;-74
2023/08/26 04:34:36;;;;;;;9.70;3.38;;;14.80;57.80;;;;;;5053789;28;20389;-74
2023/08/26 04:37:02;;;;;;;11.35;4.03;;;14.80;57.50;;;;;;5053449;28;20435;-75
2023/08/26 04:39:27;;;;;;;11.70;3.88;;;14.80;57.30;;;;;;5054402;28;20416;-75
2023/08/26 04:41:53;;;;;;;10.30;4.07;;;14.90;56.90;;;;;;5054085;28;20885;-75
2023/08/26 04:44:19;;;;;;;10.52;3.70;;;14.90;56.60;;;;;;5053957;28;20377;-74
2023/08/26 04:46:45;;;;;;;8.52;3.80;;;14.90;55.50;;;;;;5053398;28;20905;-74
2023/08/26 04:49:10;;;;;;;10.15;3.55;;;15.00;55.10;;;;;;5053182;28;20398;-75
2023/08/26 04:51:37;;;;;;;11.32;3.92;;;15.00;55.60;;;;;;5053142;28;20738;-75
2023/08/26 04:54:03;;;;;;;10.23;3.70;;;15.00;55.40;;;;;;5053299;28;20464;-74
2023/08/26 04:56:29;;;;;;;11.23;3.38;;;15.00;55.70;;;;;;5053153;28;20409;-74
2023/08/26 04:58:54;;;;;;;12.90;3.53;;;15.00;55.60;;;;;;5053252;28;20393;-73
2023/08/26 05:01:20;;;;;;;7.80;3.30;;;15.00;54.80;;;;;;5052861;28;20386;-73
2023/08/26 05:03:46;;;;;;;8.90;3.30;;;15.10;53.80;;;;;;5053828;28;20389;-75
2023/08/26 05:06:11;;;;;;;7.47;3.20;;;15.10;53.40;;;;;;5053214;28;20386;-74
2023/08/26 05:08:37;;;;;;;9.82;3.25;;;15.10;53.10;;;;;;5052997;28;20440;-75
2023/08/26 05:11:04;;;;;;;8.30;3.33;;;15.10;52.50;;;;;;5052614;28;20894;-74
2023/08/26 05:13:30;;;;;;;9.90;3.20;;;15.10;52.50;;;;;;5052925;28;20380;-75
2023/08/26 05:15:55;;;;;;;9.73;3.10;;;15.20;52.40;;;;;;5052852;28;20874;-74
2023/08/26 05:18:21;;;;;;;11.20;3.80;;;15.20;52.60;;;;;;5052765;28;20382;-74
2023/08/26 05:20:46;;;;;;;7.00;2.83;;;15.20;52.70;;;;;;5051399;28;20890;-75
2023/08/26 05:23:14;;;;;;;6.37;2.77;;;15.20;52.00;;;;;;5051427;28;20393;-75
2023/08/26 05:25:39;;;;;;;12.32;3.30;;;15.30;50.60;;;;;;5051521;28;20776;-75
2023/08/26 05:28:05;;;;;;;8.05;2.60;;;15.40;50.20;;;;;;5052511;28;20401;-74
2023/08/26 05:30:31;;;;;;;5.82;2.20;;;15.50;49.50;;;;;;5052538;28;20377;-75
2023/08/26 05:32:56;;;;;;;10.00;2.90;;;15.50;50.10;;;;;;5052323;28;20435;-75
2023/08/26 05:35:22;;;;;;;9.40;2.50;;;15.50;49.10;;;;;;5052550;28;20431;-74
2023/08/26 05:37:48;;;;;;;7.23;2.93;;;15.50;49.30;;;;;;5051428;28;20382;-74
2023/08/26 05:40:14;;;;;;;6.53;2.55;;;15.50;49.00;;;;;;5052295;28;20423;-75
2023/08/26 05:42:40;;;;;;;10.27;2.80;;;15.50;49.20;;;;;;5052339;28;20480;-76
2023/08/26 05:45:06;;;;;;;6.22;2.30;;;15.60;48.70;;;;;;5052385;28;20969;-75
2023/08/26 05:47:31;;;;;;;7.32;2.65;;;15.70;48.50;;;;;;5052376;28;20472;-75
2023/08/26 05:49:58;;;;;;;6.57;2.63;;;15.70;48.10;;;;;;5052790;28;20424;-74
2023/08/26 05:52:24;;;;;;;7.60;2.90;;;15.70;49.00;;;;;;5052301;28;20409;-74
2023/08/26 05:54:50;;;;;;;9.30;2.40;;;15.70;48.40;;;;;;5052432;28;20916;-75
2023/08/26 05:57:16;;;;;;;5.10;2.37;;;15.80;48.10;;;;;;5052594;28;20396;-74
2023/08/26 05:59:41;;;;;;;4.57;2.70;;;16.00;46.40;;;;;;5050984;28;20464;-75
2023/08/26 06:02:07;;;;;;;7.17;3.30;;;16.00;45.50;;;;;;5051699;28;20389;-75
2023/08/26 06:04:33;;;;;;;8.40;2.77;;;16.10;45.30;;;;;;5051970;28;20750;-75
2023/08/26 06:06:59;;;;;;;6.83;2.40;;;16.10;45.60;;;;;;5052019;28;20381;-76
2023/08/26 06:09:24;;;;;;;11.70;2.60;;;16.20;44.20;;;;;;5051880;28;20412;-75
2023/08/26 06:11:50;;;;;;;7.43;2.70;;;16.20;43.50;;;;;;5051797;28;20480;-76
2023/08/26 06:14:16;;;;;;;3.60;2.22;;;16.30;43.00;;;;;;5051721;28;20488;-75
2023/08/26 06:16:41;;;;;;;9.70;2.60;;;16.50;41.70;;;;;;5051614;28;20477;-75
2023/08/26 06:19:07;;;;;;;4.07;2.00;;;16.50;41.70;;;;;;5051853;28;20381;-76
2023/08/26 06:21:33;;;;;;;6.73;1.97;;;16.50;42.00;;;;;;5052009;28;20499;-75
2023/08/26 06:23:58;;;;;;;7.10;2.10;;;16.60;40.50;;;;;;5052044;28;20385;-75
2023/08/26 06:26:24;;;;;;;6.30;1.90;;;16.60;40.80;;;;;;5051898;28;20470;-75
2023/08/26 06:28:49;;;;;;;4.80;1.83;;;16.80;39.60;;;;;;5051449;28;20401;-75
2023/08/26 06:31:15;;;;;;;4.80;1.87;;;16.80;39.60;;;;;;5051461;28;20378;-75
2023/08/26 06:33:41;;;;;;;7.17;2.33;;;16.80;40.00;;;;;;5051706;28;20378;-75
2023/08/26 06:36:07;;;;;;;4.53;2.30;;;16.80;39.70;;;;;;5051689;28;20393;-75
2023/08/26 06:38:33;;;;;;;5.00;2.40;;;16.80;39.60;;;;;;5051475;28;20393;-74
2023/08/26 06:40:58;;;;;;;9.40;2.27;;;16.80;40.20;;;;;;5051158;28;20377;-74
2023/08/26 06:43:24;;;;;;;7.10;2.13;;;16.90;39.30;;;;;;5051376;28;20451;-74
2023/08/26 06:45:50;;;;;;;7.23;1.90;;;16.90;39.70;;;;;;5051527;28;20392;-75
2023/08/26 06:48:16;;;;;;;5.70;2.10;;;17.00;39.30;;;;;;5051472;28;20405;-74
2023/08/26 06:50:47;;;;;;;6.88;1.60;;;17.00;39.50;;;;;;5058094;28;20377;-75
2023/08/26 06:53:12;;;;;;;3.60;2.10;;;17.20;39.50;;;;;;5051582;28;20440;-74
2023/08/26 06:55:38;;;;;;;5.90;2.20;;;17.30;38.10;;;;;;5051540;28;20373;-75
2023/08/26 06:58:04;;;;;;;4.30;1.90;;;17.30;38.30;;;;;;5051497;28;20389;-76
2023/08/26 07:00:29;;;;;;;6.50;2.20;;;17.30;36.70;;;;;;5050167;28;20401;-75
2023/08/26 07:02:55;;;;;;;4.63;2.03;;;17.40;36.80;;;;;;5050975;28;20869;-75
2023/08/26 07:05:20;;;;;;;6.50;1.70;;;17.50;36.80;;;;;;5051485;28;20393;-76
2023/08/26 07:07:46;;;;;;;6.93;1.95;;;17.50;36.30;;;;;;5050986;28;20388;-76
2023/08/26 07:10:11;;;;;;;4.93;2.10;;;17.60;36.70;;;;;;5053884;28;20401;-74
2023/08/26 07:12:37;;;;;;;5.53;1.97;;;17.60;35.60;;;;;;5052670;28;20381;-75
2023/08/26 07:15:03;;;;;;;5.82;2.05;;;17.70;36.20;;;;;;5050258;28;20397;-75
2023/08/26 07:17:29;;;;;;;3.58;2.28;;;17.70;35.90;;;;;;5051626;28;20443;-75
2023/08/26 07:19:54;;;;;;;7.32;2.22;;;17.80;35.80;;;;;;5051379;28;20409;-75
2023/08/26 07:22:20;;;;;;;8.83;1.80;;;17.80;35.60;;;;;;5051061;28;20884;-75
2023/08/26 07:24:45;;;;;;;4.80;2.00;;;17.80;36.20;;;;;;5050803;28;20470;-75
2023/08/26 07:27:12;;;;;;;3.92;1.80;;;18.00;35.90;;;;;;5052687;28;20494;-75
2023/08/26 07:29:38;;;;;;;9.43;2.00;;;18.10;35.00;;;;;;5051812;28;20405;-75
2023/08/26 07:32:04;;;;;;;6.47;2.20;;;18.10;34.60;;;;;;5050963;28;20539;-75
2023/08/26 07:34:29;;;;;;;5.10;1.88;;;18.10;34.30;;;;;;5051760;28;20381;-75
2023/08/26 07:36:55;;;;;;;5.60;2.00;;;18.20;34.70;;;;;;5051643;28;20385;-75
2023/08/26 07:39:21;;;;;;;7.87;1.60;;;18.20;34.60;;;;;;5052190;28;20381;-74
2023/08/26 07:41:46;;;;;;;6.60;1.98;;;18.20;34.10;;;;;;5051477;28;20451;-74
2023/08/26 07:44:12;;;;;;;4.00;1.98;;;18.30;34.20;;;;;;5052698;28;20391;-75
2023/08/26 07:46:38;;;;;;;4.47;1.70;;;18.40;33.70;;;;;;5052229;28;20413;-75
2023/08/26 07:49:04;;;;;;;6.97;1.63;;;18.60;33.00;;;;;;5052279;28;20413;-74
2023/08/26 07:51:29;;;;;;;4.17;1.70;;;18.50;33.00;;;;;;5051598;28;20396;-74
2023/08/26 07:53:55;;;;;;;8.23;1.73;;;18.50;33.70;;;;;;5051676;28;20506;-74
2023/08/26 07:56:20;;;;;;;4.60;1.90;;;18.50;33.20;;;;;;5051547;28;20405;-75
2023/08/26 07:58:46;;;;;;;4.83;2.10;;;18.50;33.50;;;;;;5050661;28;20385;-75
2023/08/26 08:01:11;;;;;;;5.00;1.50;;;18.50;32.80;;;;;;5050882;28;20377;-75
2023/08/26 08:03:37;;;;;;;3.42;1.80;;;18.60;32.60;;;;;;5054244;28;20385;-75
2023/08/26 08:06:03;;;;;;;7.67;1.73;;;18.60;32.20;;;;;;5054017;28;20416;-75
2023/08/26 08:08:28;;;;;;;4.63;1.70;;;18.60;31.90;;;;;;5053498;28;21022;-74
2023/08/26 08:10:54;;;;;;;5.07;1.40;;;18.70;31.70;;;;;;5053971;28;20446;-74
2023/08/26 08:13:20;;;;;;;3.55;1.40;;;18.70;31.00;;;;;;5054205;28;20404;-74
2023/08/26 08:15:45;;;;;;;3.03;1.50;;;18.80;30.50;;;;;;5055424;28;20377;-75
2023/08/26 08:18:11;;;;;;;6.33;1.60;;;18.70;30.10;;;;;;5054360;28;20388;-75
2023/08/26 08:20:36;;;;;;;6.00;1.70;;;18.80;30.30;;;;;;5055296;28;20381;-75
2023/08/26 08:23:03;;;;;;;4.67;1.83;;;18.90;31.10;;;;;;5054560;28;20393;-75
2023/08/26 08:25:29;;;;;;;4.10;1.20;;;18.90;29.80;;;;;;5054784;28;20472;-76
2023/08/26 08:27:54;;;;;;;5.43;1.50;;;18.90;29.80;;;;;;5053324;28;20433;-75
2023/08/26 08:30:20;;;;;;;2.47;1.50;;;18.90;29.80;;;;;;5054334;28;20846;-75
2023/08/26 08:32:45;;;;;;;2.67;1.40;;;19.10;30.00;;;;;;5054164;28;20389;-78
2023/08/26 08:35:11;;;;;;;5.97;1.50;;;19.10;29.40;;;;;;5054143;28;20385;-75
2023/08/26 08:37:37;;;;;;;3.10;1.60;;;19.10;29.60;;;;;;5053814;28;20389;-74
2023/08/26 08:40:03;;;;;;;4.93;1.90;;;19.10;29.40;;;;;;5053486;28;20687;-75
2023/08/26 08:42:32;;;;;;;3.53;1.38;;;19.30;28.70;;;;;;5053720;28;20377;-75
2023/08/26 08:44:58;;;;;;;7.75;1.90;;;19.50;30.00;;;;;;5052131;28;20485;-74
2023/08/26 08:47:24;;;;;;;5.15;1.83;;;19.70;28.20;;;;;;5052006;28;20389;-74
2023/08/26 08:49:50;;;;;;;5.90;1.50;;;19.80;27.00;;;;;;5053079;28;20424;-75
2023/08/26 08:52:19;;;;;;;5.20;1.50;;;19.90;27.50;;;;;;5053302;28;20402;-75
2023/08/26 08:54:45;;;;;;;8.95;1.75;;;19.80;27.10;;;;;;5053274;28;20377;-74
2023/08/26 08:57:14;;;;;;;6.00;1.50;;;19.60;27.00;;;;;;5053425;28;20381;-74
2023/08/26 08:59:40;;;;;;;2.50;1.20;;;19.60;27.50;;;;;;5053414;28;20385;-74
2023/08/26 09:02:06;;;;;;;3.97;1.70;;;19.60;27.80;;;;;;5053277;28;20829;-74
2023/08/26 09:04:32;;;;;;;3.27;1.50;;;19.70;27.10;;;;;;5053535;28;20838;-74
2023/08/26 09:06:59;;;;;;;3.83;1.50;;;19.70;27.00;;;;;;5052600;28;20417;-73
2023/08/26 09:09:24;;;;;;;6.65;1.45;;;19.90;27.40;;;;;;5054219;28;20401;-74
2023/08/26 09:11:51;;;;;;;3.90;1.50;;;19.90;26.40;;;;;;5053128;28;20420;-74
2023/08/26 09:14:16;;;;;;;5.70;1.80;;;19.90;25.40;;;;;;5053345;28;20385;-74
2023/08/26 09:16:43;;;;;;;4.60;1.73;;;20.00;25.50;;;;;;5055870;28;20908;-75
2023/08/26 09:19:13;;;;;;;3.30;1.50;;;20.00;25.80;;;;;;5064009;28;20381;-74
2023/08/26 09:21:46;;;;;;;7.60;1.60;;;20.10;24.80;;;;;;5064725;28;20389;-74
2023/08/26 09:24:13;;;;;;;3.25;1.48;;;20.00;24.80;;;;;;5058778;28;20435;-74
2023/08/26 09:26:39;;;;;;;4.40;1.60;;;19.90;26.60;;;;;;5064166;28;20388;-74
2023/08/26 09:29:16;;;;;;;5.90;1.48;;;20.00;25.20;;;;;;5070144;28;20413;-74
2023/08/26 09:31:45;;;;;;;5.85;1.60;;;20.10;24.30;;;;;;5064157;28;20807;-74
2023/08/26 09:34:11;;;;;;;2.60;1.20;;;20.10;25.10;;;;;;5062000;28;20377;-75
2023/08/26 09:36:41;;;;;;;3.00;1.40;;;20.10;23.90;;;;;;5063849;28;20381;-74
2023/08/26 09:39:13;;;;;;;2.33;1.00;;;20.20;24.80;;;;;;5061241;28;20378;-75
2023/08/26 09:41:43;;;;;;;3.87;1.53;;;20.20;23.80;;;;;;5059590;28;20388;-75
2023/08/26 09:44:14;;;;;;;3.08;1.50;;;20.20;24.30;;;;;;5057140;28;20393;-74
2023/08/26 09:46:40;;;;;;;4.60;1.20;;;20.20;24.00;;;;;;5052416;28;20508;-74
2023/08/26 09:49:06;;;;;;;8.03;1.40;;;20.20;24.30;;;;;;5052331;28;20488;-75
2023/08/26 09:51:32;;;;;;;5.90;1.50;;;20.30;23.90;;;;;;5052367;28;20461;-74
2023/08/26 09:53:59;;;;;;;8.15;1.42;;;20.40;23.30;;;;;;5052210;28;20385;-74
2023/08/26 09:56:26;;;;;;;2.70;1.20;;;20.50;23.20;;;;;;5052376;28;20385;-74
2023/08/26 09:58:53;;;;;;;4.07;1.60;;;20.60;22.40;;;;;;5054437;28;20435;-74
2023/08/26 10:01:23;;;;;;;4.13;1.40;;;20.50;21.90;;;;;;5051844;28;20389;-74
2023/08/26 10:04:10;;;;;;;6.00;1.30;;;20.50;22.50;;;;;;5052037;28;20389;-75
2023/08/26 10:06:52;;;;;;;5.30;1.40;;;20.60;23.20;;;;;;5051869;28;20396;-74
2023/08/26 10:09:36;;;;;;;2.00;1.20;;;20.70;22.00;;;;;;5052036;28;20730;-74
2023/08/26 10:12:05;;;;;;;3.47;1.30;;;20.80;23.20;;;;;;5051311;28;20495;-74
2023/08/26 10:14:33;;;;;;;4.30;1.43;;;20.90;22.10;;;;;;5051641;28;20439;-73
2023/08/26 10:17:01;;;;;;;2.03;1.20;;;21.00;21.70;;;;;;5051233;28;20385;-74
2023/08/26 10:19:29;;;;;;;2.45;1.20;;;21.10;21.40;;;;;;5051378;28;20432;-74
2023/08/26 10:21:56;;;;;;;3.97;1.20;;;21.10;20.60;;;;;;5051294;28;20449;-75
2023/08/26 10:24:21;;;;;;;3.20;1.50;;;21.10;22.10;;;;;;5050989;28;20878;-75
2023/08/26 10:26:48;;;;;;;2.88;1.40;;;21.10;21.50;;;;;;5051295;28;20434;-74
2023/08/26 10:29:14;;;;;;;3.03;1.30;;;21.20;21.10;;;;;;5051267;28;20440;-75
2023/08/26 10:31:43;;;;;;;4.25;1.10;;;21.40;20.90;;;;;;5050958;28;20421;-75
2023/08/26 10:34:08;;;;;;;3.38;1.25;;;21.50;21.20;;;;;;5050946;28;20847;-74
2023/08/26 10:36:35;;;;;;;3.42;1.70;;;21.40;20.10;;;;;;5050921;28;20378;-75
2023/08/26 10:39:02;;;;;;;3.70;1.20;;;21.30;21.50;;;;;;5050846;28;20396;-74
2023/08/26 10:41:28;;;;;;;2.10;1.08;;;21.30;20.20;;;;;;5050883;28;20381;-74
2023/08/26 10:43:56;;;;;;;2.00;1.40;;;21.20;21.50;;;;;;5050720;28;20820;-74
2023/08/26 10:46:35;;;;;;;3.90;1.38;;;21.30;22.30;;;;;;5050841;28;20757;-74
2023/08/26 10:49:03;;;;;;;2.63;1.10;;;21.60;21.70;;;;;;5050795;28;20397;-74
2023/08/26 10:51:29;;;;;;;2.80;1.60;;;21.70;20.80;;;;;;5050780;28;20436;-74
2023/08/26 10:54:02;;;;;;;2.90;1.20;;;21.70;19.90;;;;;;5050642;28;20381;-75
2023/08/26 10:56:29;;;;;;;4.20;1.30;;;21.70;19.70;;;;;;5050917;28;20377;-74
2023/08/26 10:59:01;;;;;;;2.40;1.20;;;21.90;21.10;;;;;;5050660;28;20758;-74
2023/08/26 11:01:28;;;;;;;3.10;1.13;;;22.10;19.40;;;;;;5051292;28;20382;-74
2023/08/26 11:03:54;;;;;;;4.88;1.38;;;22.10;19.10;;;;;;5051422;28;20390;-73
2023/08/26 11:06:22;;;;;;;3.77;1.00;;;22.30;19.00;;;;;;5051507;28;20826;-73
2023/08/26 11:08:57;;;;;;;5.30;1.20;;;22.20;19.40;;;;;;5050434;28;20455;-74
2023/08/26 11:11:24;;;;;;;2.30;1.00;;;22.40;18.70;;;;;;5050018;28;20419;-74
2023/08/26 11:13:50;;;;;;;3.30;1.20;;;22.50;18.40;;;;;;5049317;28;20472;-74
2023/08/26 11:16:16;;;;;;;2.95;1.15;;;22.50;18.00;;;;;;5050773;28;20405;-74
2023/08/26 11:18:42;;;;;;;2.30;1.03;;;22.70;18.10;;;;;;5049460;28;20397;-74
2023/08/26 11:21:08;;;;;;;2.10;1.10;;;23.00;17.40;;;;;;5050378;28;20393;-74
2023/08/26 11:23:34;;;;;;;2.70;1.10;;;23.10;17.80;;;;;;5050598;28;20403;-74
2023/08/26 11:25:59;;;;;;;2.10;1.15;;;23.00;17.20;;;;;;5051108;28;20382;-74
2023/08/26 11:28:28;;;;;;;2.95;1.30;;;23.00;17.30;;;;;;5050609;28;20409;-74
2023/08/26 11:30:54;;;;;;;3.08;1.20;;;23.10;17.50;;;;;;5052146;28;20486;-74
2023/08/26 11:33:23;;;;;;;11.88;1.50;;;23.40;17.20;;;;;;5050614;28;20747;-74
2023/08/26 11:35:49;;;;;;;4.60;1.20;;;23.50;16.10;;;;;;5049703;28;20412;-74
2023/08/26 11:38:16;;;;;;;3.40;1.10;;;23.30;16.60;;;;;;5050424;28;20790;-74
2023/08/26 11:40:42;;;;;;;2.05;1.20;;;23.40;16.20;;;;;;5050441;28;20396;-74
2023/08/26 11:43:12;;;;;;;4.90;1.30;;;23.70;16.10;;;;;;5049960;28;20881;-74
2023/08/26 11:45:42;;;;;;;2.17;1.20;;;24.00;16.50;;;;;;5050163;28;20443;-74
2023/08/26 11:48:11;;;;;;;2.10;1.30;;;24.30;15.10;;;;;;5049846;28;20433;-74
2023/08/26 11:50:37;;;;;;;3.72;1.10;;;24.50;15.70;;;;;;5048802;28;20443;-74
2023/08/26 11:53:04;;;;;;;6.07;1.23;;;24.60;13.80;;;;;;5050444;28;20394;-74
2023/08/26 11:55:31;;;;;;;2.30;1.00;;;24.50;14.70;;;;;;5050577;28;20385;-75
2023/08/26 11:57:58;;;;;;;3.20;1.40;;;24.40;14.50;;;;;;5050594;28;20874;-74
2023/08/26 12:00:24;;;;;;;3.28;1.20;;;24.30;15.20;;;;;;5050538;28;20386;-75
2023/08/26 12:02:52;;;;;;;4.65;1.30;;;24.20;14.70;;;;;;5050218;28;20385;-75
2023/08/26 12:05:19;;;;;;;2.00;1.10;;;24.10;15.30;;;;;;5050467;28;20421;-75
2023/08/26 12:07:45;;;;;;;1.98;1.15;;;24.30;15.70;;;;;;5050528;28;20427;-74
2023/08/26 12:10:13;;;;;;;2.50;1.20;;;24.10;15.30;;;;;;5050085;28;20480;-74
2023/08/26 12:12:40;;;;;;;2.40;1.20;;;23.90;15.80;;;;;;5050126;28;20389;-74
2023/08/26 12:15:10;;;;;;;6.30;1.20;;;23.80;17.10;;;;;;5050204;28;20879;-74
2023/08/26 12:17:46;;;;;;;2.90;1.10;;;24.10;17.00;;;;;;5049904;28;20378;-74
2023/08/26 12:20:22;;;;;;;3.63;1.20;;;24.60;16.50;;;;;;5049857;28;20885;-74
2023/08/26 12:22:52;;;;;;;4.80;1.40;;;24.80;15.20;;;;;;5049703;28;20385;-74
2023/08/26 12:25:22;;;;;;;3.70;1.20;;;25.00;14.80;;;;;;5049868;28;20425;-74
2023/08/26 12:27:47;;;;;;;3.08;1.48;;;25.20;13.90;;;;;;5048790;28;20378;-74
2023/08/26 12:30:13;;;;;;;2.23;1.33;;;25.20;13.90;;;;;;5050051;28;20397;-74
2023/08/26 12:32:39;;;;;;;3.80;1.40;;;25.60;14.10;;;;;;5050104;28;20548;-74
2023/08/26 12:35:05;;;;;;;3.07;1.57;;;25.90;13.10;;;;;;5049533;28;20446;-73
2023/08/26 12:37:30;;;;;;;6.03;1.40;;;26.20;12.80;;;;;;5049923;28;20385;-74
2023/08/26 12:39:57;;;;;;;3.83;1.30;;;26.10;12.00;;;;;;5049927;28;20836;-74